CYBC

Baie Comeau Airport

Baie-Comeau, Quebec, Canada
METAR CYBC 100600Z AUTO 34006KT 9SM CLR M14/M16 A2998 RMK SLP157
Observed Flight Rules
Dec-10 @ 06:00 UTC (30 minutes ago) Visual Flight Rules
Wind Visibility Clouds
340° at 6 knots 9 miles
  • Clear skies
Temperatures Readings
Current -14°C / 7°F
Dewpoint -16°C / 3°F
Humidity 85%
Altimeter 29.98" Hg
Pressure 1015.7 hPa
Elevation 22
METAR CYBC 100600Z AUTO 34006KT 9SM CLR M14/M16 A2998 RMK SLP157
Observed Flight Rules
Dec-10 @ 06:00 UTC
(30 minutes ago)
VFR
Wind Visibility
340° at 6 knots 9 miles
Clouds
  • Clear skies
Temperature Dewpoint
-14°C / 7°F -16°C / 3°F
Humidity Altimeter Pressure
85% 29.98" Hg 1015.7 hPa